Spooner, Minnesota
Current Conditions -  °F | °C
As of 12:13 PM on Saturday 20 Dec 2014 (Local Time) from KBDE Reporting Station
Haze Haze  
Wind Chill: 24°   Ceiling: 600
Heat Index: 30°   Visibility: 3mi
Dew Point: 28°   Wind: 6mph
Humidity: 92%   Direction: 170°S
Pressure: 29.99"   Gusts: NA
Location:  48.5595°N, 94.661°W
Report Text: KBDE 201813Z AUTO 17005KT 3SM BR BKN006 OVC011 M01/M02 A2999 RMK AO2 CIG 004V010 T10111022 TSNO
Loading
Personal Weather Stations






























Interactive Weather Map New forecast layout! Learn more

10-Day Weather Forecast

Advertisements
Track Severe Weather on mobile